createdAt,value
2022-09-17T00:01:33.220Z,2.92
2022-09-17T00:04:04.749Z,8.27
2022-09-17T00:06:35.040Z,6.47
2022-09-17T00:09:04.297Z,5.93
2022-09-17T00:11:36.560Z,7.47
2022-09-17T00:14:07.144Z,4.18
2022-09-17T00:16:40.330Z,3.53
2022-09-17T00:19:15.492Z,7.28
2022-09-17T00:21:44.640Z,10.85
2022-09-17T00:24:13.872Z,6.53
2022-09-17T00:26:42.083Z,2.65
2022-09-17T00:29:12.762Z,7.20
2022-09-17T00:31:40.841Z,3.75
2022-09-17T00:34:09.333Z,7.65
2022-09-17T00:36:39.091Z,7.75
2022-09-17T00:39:09.537Z,7.55
2022-09-17T00:41:38.731Z,4.18
2022-09-17T00:44:48.230Z,4.25
2022-09-17T00:47:35.921Z,6.45
2022-09-17T00:50:14.911Z,4.60
2022-09-17T00:52:46.533Z,6.13
2022-09-17T00:55:24.637Z,6.82
2022-09-17T00:57:58.822Z,3.35
2022-09-17T01:00:28.348Z,4.78
2022-09-17T01:02:56.012Z,4.35
2022-09-17T01:05:49.786Z,6.35
2022-09-17T01:08:53.874Z,5.35
2022-09-17T01:11:30.189Z,5.75
2022-09-17T01:14:23.537Z,3.25
2022-09-17T01:17:09.998Z,3.17
2022-09-17T01:20:30.471Z,3.08
2022-09-17T01:23:21.961Z,4.43
2022-09-17T01:26:10.575Z,6.88
2022-09-17T01:28:54.634Z,6.55
2022-09-17T01:31:53.019Z,3.70
2022-09-17T01:34:59.691Z,5.97
2022-09-17T01:37:39.592Z,4.22
2022-09-17T01:40:32.467Z,3.67
2022-09-17T01:43:10.925Z,8.27
2022-09-17T01:45:43.805Z,12.40
2022-09-17T01:48:35.610Z,6.47
2022-09-17T01:51:14.860Z,3.60
2022-09-17T01:53:51.475Z,4.90
2022-09-17T01:56:25.568Z,4.23
2022-09-17T01:59:11.572Z,7.13
2022-09-17T02:01:43.685Z,6.27
2022-09-17T02:05:03.844Z,9.30
2022-09-17T02:07:37.199Z,18.33
2022-09-17T02:10:12.970Z,21.75
2022-09-17T02:12:52.543Z,25.90
2022-09-17T02:15:33.629Z,32.37
2022-09-17T02:18:26.038Z,24.93
2022-09-17T02:21:06.123Z,21.37
2022-09-17T02:24:01.650Z,22.27
2022-09-17T02:29:21.124Z,15.83
2022-09-17T02:31:48.817Z,12.57
2022-09-17T02:34:16.570Z,20.60
2022-09-17T02:36:44.085Z,14.77
2022-09-17T02:39:11.632Z,17.07
2022-09-17T02:41:58.615Z,14.00
2022-09-17T02:44:55.365Z,9.57
2022-09-17T02:47:59.895Z,15.23
2022-09-17T02:51:11.374Z,11.87
2022-09-17T02:54:05.985Z,19.13
2022-09-17T02:56:54.423Z,13.90
2022-09-17T02:59:42.585Z,9.23
2022-09-17T03:02:26.749Z,10.60
2022-09-17T03:04:55.710Z,10.83
2022-09-17T03:07:24.314Z,6.05
2022-09-17T03:09:51.944Z,9.90
2022-09-17T03:12:19.451Z,7.93
2022-09-17T03:14:46.997Z,9.40
2022-09-17T03:17:14.980Z,11.98
2022-09-17T03:19:42.670Z,9.55
2022-09-17T03:22:10.184Z,6.70
2022-09-17T03:24:37.629Z,7.60
2022-09-17T03:27:05.476Z,9.77
2022-09-17T03:29:32.937Z,15.30
2022-09-17T03:32:01.089Z,11.02
2022-09-17T03:34:28.540Z,5.70
2022-09-17T03:36:56.033Z,6.97
2022-09-17T03:39:23.488Z,7.25
2022-09-17T03:41:51.489Z,5.60
2022-09-17T03:44:19.531Z,7.53
2022-09-17T03:46:47.087Z,8.73
2022-09-17T03:49:14.722Z,8.17
2022-09-17T03:51:42.184Z,7.97
2022-09-17T03:54:09.721Z,8.07
2022-09-17T03:56:37.228Z,13.97
2022-09-17T03:59:04.818Z,10.27
2022-09-17T04:01:32.760Z,10.57
2022-09-17T04:04:00.574Z,8.20
2022-09-17T04:06:28.185Z,9.97
2022-09-17T04:08:56.943Z,9.10
2022-09-17T04:11:24.600Z,12.90
2022-09-17T04:13:53.215Z,6.50
2022-09-17T04:16:20.812Z,12.23
2022-09-17T04:18:48.310Z,15.03
2022-09-17T04:21:16.873Z,13.33
2022-09-17T04:23:44.362Z,11.63
2022-09-17T04:26:12.174Z,6.10
2022-09-17T04:28:39.692Z,9.07
2022-09-17T04:31:07.306Z,8.63
2022-09-17T04:33:34.867Z,17.70
2022-09-17T04:36:02.671Z,26.40
2022-09-17T04:38:30.551Z,35.00
2022-09-17T04:40:58.033Z,19.80
2022-09-17T04:43:25.718Z,24.67
2022-09-17T04:45:53.179Z,19.77
2022-09-17T04:48:20.634Z,16.70
2022-09-17T04:50:48.162Z,24.17
2022-09-17T04:53:15.628Z,13.57
2022-09-17T04:55:44.401Z,10.03
2022-09-17T04:58:14.997Z,13.13
2022-09-17T05:00:42.653Z,10.27
2022-09-17T05:03:10.368Z,9.73
2022-09-17T05:05:37.919Z,9.25
2022-09-17T05:08:05.810Z,7.43
2022-09-17T05:10:33.256Z,11.07
2022-09-17T05:13:01.085Z,10.20
2022-09-17T05:15:28.573Z,18.70
2022-09-17T05:17:56.023Z,8.55
2022-09-17T05:20:23.574Z,17.13
2022-09-17T05:22:52.895Z,17.85
2022-09-17T05:25:25.497Z,15.00
2022-09-17T05:27:54.655Z,12.18
2022-09-17T05:30:22.501Z,16.85
2022-09-17T05:32:56.031Z,12.88
2022-09-17T05:35:23.739Z,13.10
2022-09-17T05:37:51.194Z,12.48
2022-09-17T05:40:18.817Z,20.92
2022-09-17T05:42:46.284Z,8.32
2022-09-17T05:45:14.000Z,11.07
2022-09-17T05:47:41.429Z,9.43
2022-09-17T05:50:09.537Z,9.45
2022-09-17T05:52:37.010Z,6.65
2022-09-17T05:55:04.880Z,6.07
2022-09-17T05:57:32.351Z,9.88
2022-09-17T05:59:59.914Z,9.77
2022-09-17T06:02:27.432Z,10.85
2022-09-17T06:04:55.710Z,12.05
2022-09-17T06:07:23.744Z,8.52
2022-09-17T06:09:51.189Z,11.18
2022-09-17T06:12:18.652Z,13.43
2022-09-17T06:14:46.217Z,7.55
2022-09-17T06:17:13.678Z,17.67
2022-09-17T06:19:41.114Z,11.63
2022-09-17T06:22:08.555Z,7.50
2022-09-17T06:24:36.096Z,11.65
2022-09-17T06:27:03.770Z,12.90
2022-09-17T06:29:31.367Z,9.33
2022-09-17T06:31:58.834Z,11.48
2022-09-17T06:34:27.065Z,7.18
2022-09-17T06:36:54.530Z,12.40
2022-09-17T06:39:22.230Z,8.65
2022-09-17T06:41:49.746Z,6.55
2022-09-17T06:44:17.190Z,13.05
2022-09-17T06:46:44.853Z,9.88
2022-09-17T06:49:12.353Z,8.50
2022-09-17T06:51:39.825Z,9.52
2022-09-17T06:54:08.361Z,22.70
2022-09-17T06:56:35.965Z,6.80
2022-09-17T06:59:04.059Z,8.60
2022-09-17T07:01:31.582Z,7.40
2022-09-17T07:03:59.172Z,12.00
2022-09-17T07:06:26.783Z,5.53
2022-09-17T07:08:54.388Z,10.93
2022-09-17T07:11:21.964Z,7.75
2022-09-17T07:13:49.445Z,8.52
2022-09-17T07:16:17.050Z,7.90
2022-09-17T07:18:44.536Z,7.43
2022-09-17T07:21:12.884Z,12.57
2022-09-17T07:23:40.402Z,8.75
2022-09-17T07:26:13.540Z,11.00
2022-09-17T07:28:43.757Z,11.55
2022-09-17T07:31:16.362Z,7.95
2022-09-17T07:33:46.647Z,13.18
2022-09-17T07:36:18.410Z,13.32
2022-09-17T07:38:46.196Z,12.02
2022-09-17T07:41:16.730Z,11.13
2022-09-17T07:43:44.960Z,8.75
2022-09-17T07:46:20.613Z,6.00
2022-09-17T07:48:49.768Z,10.07
2022-09-17T07:51:23.479Z,4.97
2022-09-17T07:53:55.447Z,8.15
2022-09-17T07:56:23.908Z,5.22
2022-09-17T07:58:51.688Z,8.85
2022-09-17T08:01:23.370Z,5.07
2022-09-17T08:03:54.224Z,10.43
2022-09-17T08:06:28.163Z,6.80
2022-09-17T08:08:57.820Z,9.38
2022-09-17T08:11:54.638Z,7.10
2022-09-17T08:14:18.546Z,15.20
2022-09-17T08:16:48.237Z,12.10
2022-09-17T08:19:19.040Z,11.23
2022-09-17T08:21:47.039Z,12.57
2022-09-17T08:24:14.577Z,7.70
2022-09-17T08:26:42.213Z,7.65
2022-09-17T08:29:11.355Z,8.77
2022-09-17T08:31:41.169Z,10.13
2022-09-17T08:34:10.244Z,18.77
2022-09-17T08:36:38.101Z,8.70
2022-09-17T08:39:05.823Z,8.35
2022-09-17T08:41:51.850Z,13.23
2022-09-17T08:44:41.817Z,12.02
2022-09-17T08:47:36.562Z,13.30
2022-09-17T08:50:15.463Z,8.32
2022-09-17T08:53:10.562Z,8.23
2022-09-17T08:55:44.828Z,11.10
2022-09-17T08:58:30.924Z,8.52
2022-09-17T09:01:52.843Z,13.77
2022-09-17T09:04:50.356Z,9.07
2022-09-17T09:07:34.758Z,7.38
2022-09-17T09:10:33.723Z,10.40
2022-09-17T09:13:03.573Z,5.00
2022-09-17T09:15:59.619Z,7.95
2022-09-17T09:18:31.669Z,20.60
2022-09-17T09:21:30.601Z,10.07
2022-09-17T09:24:00.912Z,11.95
2022-09-17T09:26:45.024Z,7.70
2022-09-17T09:29:46.039Z,9.65
2022-09-17T09:32:58.675Z,11.88
2022-09-17T09:35:34.263Z,16.52
2022-09-17T09:38:35.986Z,34.63
2022-09-17T09:41:27.017Z,12.18
2022-09-17T09:44:17.413Z,8.60
2022-09-17T09:47:42.892Z,10.23
2022-09-17T09:51:06.208Z,12.25
2022-09-17T09:53:52.740Z,8.98
2022-09-17T09:56:28.613Z,5.88
2022-09-17T09:58:57.233Z,11.65
2022-09-17T10:01:29.067Z,10.85
2022-09-17T10:03:59.012Z,11.85
2022-09-17T10:06:31.690Z,7.85
2022-09-17T10:09:02.182Z,8.57
2022-09-17T10:11:35.252Z,9.70
2022-09-17T10:14:30.104Z,13.18
2022-09-17T10:17:26.232Z,23.27
2022-09-17T10:20:15.749Z,11.50
2022-09-17T10:22:48.816Z,14.30
2022-09-17T10:25:32.226Z,11.82
2022-09-17T10:28:03.840Z,9.38
2022-09-17T10:30:31.666Z,13.10
2022-09-17T10:33:22.147Z,16.88
2022-09-17T10:36:06.439Z,11.32
2022-09-17T10:38:47.681Z,15.20
2022-09-17T10:41:42.450Z,8.02
2022-09-17T10:44:21.297Z,14.40
2022-09-17T10:46:49.103Z,13.20
2022-09-17T10:49:44.283Z,13.57
2022-09-17T10:52:39.454Z,22.48
2022-09-17T10:55:41.371Z,23.60
2022-09-17T10:58:08.746Z,14.18
2022-09-17T11:01:00.182Z,18.17
2022-09-17T11:03:57.589Z,28.60
2022-09-17T11:06:28.346Z,11.23
2022-09-17T11:09:07.662Z,16.52
2022-09-17T11:11:48.054Z,12.82
2022-09-17T11:15:02.030Z,11.15
2022-09-17T11:17:53.880Z,10.38
2022-09-17T11:21:11.382Z,13.02
2022-09-17T11:24:20.197Z,11.15
2022-09-17T11:27:19.661Z,19.02
2022-09-17T11:30:38.359Z,17.40
2022-09-17T11:33:45.691Z,15.32
2022-09-17T11:36:23.445Z,4.50
2022-09-17T11:38:55.156Z,5.90
2022-09-17T11:41:37.562Z,11.83
2022-09-17T11:44:31.292Z,5.37
2022-09-17T11:47:15.368Z,3.50
2022-09-17T11:50:11.476Z,4.17
2022-09-17T11:52:51.142Z,5.80
2022-09-17T11:56:00.975Z,3.10
2022-09-17T11:58:44.970Z,2.53
2022-09-17T12:04:46.284Z,5.70
2022-09-17T12:07:41.615Z,4.37
2022-09-17T12:10:41.995Z,3.63
2022-09-17T12:13:48.557Z,3.33
2022-09-17T12:16:27.122Z,3.03
2022-09-17T12:19:07.811Z,4.53
2022-09-17T12:21:57.365Z,3.22
2022-09-17T12:24:31.065Z,4.85
2022-09-17T12:27:38.323Z,3.45
2022-09-17T12:30:15.172Z,3.15
2022-09-17T12:33:53.908Z,10.68
2022-09-17T12:37:13.937Z,3.20
2022-09-17T12:40:25.411Z,1.90
2022-09-17T12:43:06.368Z,1.70
2022-09-17T12:45:54.535Z,7.25
2022-09-17T12:48:59.025Z,4.05
2022-09-17T12:51:47.330Z,4.43
2022-09-17T12:55:00.628Z,4.35
2022-09-17T12:58:26.514Z,3.10
2022-09-17T13:01:14.806Z,4.03
2022-09-17T13:04:14.945Z,3.65
2022-09-17T13:07:13.727Z,3.00
2022-09-17T13:10:49.071Z,1.88
2022-09-17T13:13:48.970Z,1.75
2022-09-17T13:16:24.075Z,2.45
2022-09-17T13:19:17.215Z,2.38
2022-09-17T13:22:01.572Z,1.42
2022-09-17T13:24:31.631Z,8.75
2022-09-17T13:27:02.568Z,3.28
2022-09-17T13:29:46.260Z,2.17
2022-09-17T13:32:36.834Z,1.70
2022-09-17T13:35:10.287Z,3.55
2022-09-17T13:37:55.951Z,1.92
2022-09-17T13:40:35.111Z,1.70
2022-09-17T13:43:08.381Z,1.45
2022-09-17T13:46:04.591Z,2.25
2022-09-17T13:48:35.490Z,2.90
2022-09-17T13:51:30.829Z,1.77
2022-09-17T13:54:12.091Z,2.08
2022-09-17T13:57:02.767Z,1.25
2022-09-17T13:59:31.360Z,2.90
2022-09-17T14:02:17.235Z,3.00
2022-09-17T14:04:46.681Z,3.15
2022-09-17T14:07:28.997Z,6.25
2022-09-17T14:10:15.243Z,3.45
2022-09-17T14:12:52.275Z,2.90
2022-09-17T14:15:43.591Z,1.42
2022-09-17T14:18:29.530Z,2.88
2022-09-17T14:21:27.875Z,1.25
2022-09-17T14:24:00.942Z,2.72
2022-09-17T14:27:12.444Z,2.03
2022-09-17T14:30:02.974Z,3.55
2022-09-17T14:33:00.712Z,2.75
2022-09-17T14:35:37.062Z,2.05
2022-09-17T14:38:25.004Z,4.07
2022-09-17T14:41:03.621Z,1.42
2022-09-17T14:44:20.942Z,2.42
2022-09-17T14:47:18.255Z,2.00
2022-09-17T14:49:47.182Z,4.53
2022-09-17T14:52:40.447Z,1.55
2022-09-17T14:55:20.747Z,5.32
2022-09-17T14:58:04.761Z,6.15
2022-09-17T15:00:38.285Z,6.60
2022-09-17T15:03:06.893Z,4.25
2022-09-17T15:05:40.270Z,5.53
2022-09-17T15:08:10.456Z,4.35
2022-09-17T15:11:09.917Z,3.35
2022-09-17T15:13:51.927Z,3.00
2022-09-17T15:16:26.513Z,4.32
2022-09-17T15:19:00.066Z,3.40
2022-09-17T15:21:45.934Z,6.55
2022-09-17T15:24:34.759Z,4.60
2022-09-17T15:27:23.591Z,3.45
2022-09-17T15:30:05.426Z,4.43
2022-09-17T15:32:38.533Z,3.78
2022-09-17T15:35:21.915Z,7.93
2022-09-17T15:38:23.211Z,39.13
2022-09-17T15:40:56.536Z,50.00
2022-09-17T15:43:35.498Z,9.38
2022-09-17T15:46:30.754Z,23.92
2022-09-17T15:49:03.008Z,8.55
2022-09-17T15:51:36.230Z,6.20
2022-09-17T15:54:25.567Z,3.92
2022-09-17T15:57:05.110Z,9.85
2022-09-17T15:59:36.688Z,5.25
2022-09-17T16:02:11.238Z,4.10
2022-09-17T16:04:42.552Z,8.70
2022-09-17T16:08:01.611Z,13.80
2022-09-17T16:29:06.061Z,8.70
2022-09-17T16:31:34.771Z,6.83
2022-09-17T16:34:02.843Z,7.60
2022-09-17T16:36:34.513Z,6.43
2022-09-17T16:39:03.101Z,8.67
2022-09-17T16:41:33.174Z,14.07
2022-09-17T16:44:02.423Z,31.07
2022-09-17T16:46:31.050Z,9.83
2022-09-17T16:49:00.803Z,11.10
2022-09-17T16:51:28.485Z,11.33
2022-09-17T16:53:58.261Z,6.20
2022-09-17T16:56:25.714Z,5.22
2022-09-17T16:58:56.809Z,7.55
2022-09-17T17:01:24.375Z,6.18
2022-09-17T17:03:54.489Z,7.97
2022-09-17T17:06:22.910Z,4.95
2022-09-17T17:08:50.409Z,8.77
2022-09-17T17:11:17.918Z,8.73
2022-09-17T17:13:46.338Z,6.63
2022-09-17T17:16:16.189Z,5.47
2022-09-17T17:18:44.962Z,4.65
2022-09-17T17:21:15.254Z,51.10
2022-09-17T17:23:47.853Z,55.55
2022-09-17T17:26:21.155Z,50.03
2022-09-17T17:28:50.396Z,37.10
2022-09-17T17:31:18.195Z,53.05
2022-09-17T17:33:47.101Z,51.95
2022-09-17T17:36:14.717Z,22.15
2022-09-17T17:38:43.015Z,7.55
2022-09-17T17:41:13.615Z,9.13
2022-09-17T17:43:42.756Z,9.35
2022-09-17T17:46:13.075Z,6.93
2022-09-17T17:48:40.648Z,4.35
2022-09-17T17:51:11.002Z,7.75
2022-09-17T17:53:42.305Z,7.60
2022-09-17T17:56:15.262Z,7.60
2022-09-17T17:58:42.962Z,5.10
2022-09-17T18:01:23.167Z,4.78
2022-09-17T18:03:55.348Z,6.93
2022-09-17T18:06:22.902Z,7.00
2022-09-17T18:08:50.429Z,3.60
2022-09-17T18:11:18.559Z,3.80
2022-09-17T18:13:46.061Z,5.50
2022-09-17T18:16:15.085Z,6.00
2022-09-17T18:19:05.867Z,4.50
2022-09-17T18:21:33.488Z,81.33
2022-09-17T18:24:00.947Z,87.73
2022-09-17T18:26:29.463Z,65.67
2022-09-17T18:28:57.168Z,64.13
2022-09-17T18:31:31.444Z,11.13
2022-09-17T18:34:15.597Z,23.93
2022-09-17T18:36:50.754Z,14.70
2022-09-17T18:42:09.576Z,21.67
2022-09-17T18:44:37.054Z,10.13
2022-09-17T18:47:07.782Z,6.30
2022-09-17T18:49:35.271Z,4.67
2022-09-17T18:52:02.970Z,4.13
2022-09-17T18:54:30.422Z,3.47
2022-09-17T18:56:57.893Z,4.83
2022-09-17T18:59:25.565Z,7.40
2022-09-17T19:01:56.498Z,5.77
2022-09-17T19:04:23.987Z,4.30
2022-09-17T19:06:51.742Z,6.93
2022-09-17T19:09:22.282Z,5.13
2022-09-17T19:11:51.171Z,2.90
2022-09-17T19:14:18.631Z,3.13
2022-09-17T19:16:49.104Z,4.87
2022-09-17T19:19:19.968Z,4.80
2022-09-17T19:21:50.698Z,4.83
2022-09-17T19:24:18.713Z,3.13
2022-09-17T19:26:50.840Z,2.57
2022-09-17T19:29:18.890Z,4.03
2022-09-17T19:31:47.051Z,4.70
2022-09-17T19:34:14.614Z,3.63
2022-09-17T19:36:42.767Z,3.70
2022-09-17T19:39:10.294Z,2.57
2022-09-17T19:41:38.475Z,3.63
2022-09-17T19:44:06.117Z,2.77
2022-09-17T19:46:33.725Z,1.63
2022-09-17T19:49:01.554Z,2.33
2022-09-17T19:51:32.407Z,3.83
2022-09-17T19:54:00.237Z,6.10
2022-09-17T19:56:28.670Z,2.90
2022-09-17T19:58:57.426Z,2.30
2022-09-17T20:01:25.090Z,8.50
2022-09-17T20:03:53.631Z,4.23
2022-09-17T20:06:23.987Z,9.73
2022-09-17T20:08:55.903Z,2.83
2022-09-17T20:11:25.963Z,6.97
2022-09-17T20:14:06.659Z,4.13
2022-09-17T20:16:37.719Z,4.27
2022-09-17T20:19:07.135Z,4.27
2022-09-17T20:21:35.004Z,3.93
2022-09-17T20:24:02.788Z,5.63
2022-09-17T20:26:30.211Z,5.00
2022-09-17T20:28:57.848Z,7.47
2022-09-17T20:31:29.977Z,4.27
2022-09-17T20:34:00.609Z,5.87
2022-09-17T20:36:31.706Z,4.47
2022-09-17T20:39:21.940Z,1.77
2022-09-17T20:41:47.200Z,6.27
2022-09-17T20:44:14.779Z,3.10
2022-09-17T20:46:42.362Z,5.03
2022-09-17T20:49:10.028Z,5.73
2022-09-17T20:51:37.552Z,5.97
2022-09-17T20:54:05.931Z,5.33
2022-09-17T20:56:35.618Z,6.83
2022-09-17T20:59:14.366Z,4.83
2022-09-17T21:01:45.421Z,7.10
2022-09-17T21:04:17.060Z,5.10
2022-09-17T21:06:45.680Z,2.50
2022-09-17T21:09:17.880Z,7.13
2022-09-17T21:11:49.319Z,4.60
2022-09-17T21:14:18.295Z,5.00
2022-09-17T21:16:48.774Z,2.27
2022-09-17T21:19:19.982Z,6.70
2022-09-17T21:21:51.689Z,4.53
2022-09-17T21:24:20.387Z,4.03
2022-09-17T21:26:48.237Z,5.30
2022-09-17T21:29:18.459Z,4.57
2022-09-17T21:31:48.422Z,2.63
2022-09-17T21:34:16.371Z,3.17
2022-09-17T21:36:44.654Z,4.27
2022-09-17T21:39:20.263Z,2.60
2022-09-17T21:41:50.487Z,3.73
2022-09-17T21:44:18.232Z,4.50
2022-09-17T21:46:45.803Z,4.40
2022-09-17T21:49:13.579Z,2.70
2022-09-17T21:51:43.540Z,3.33
2022-09-17T21:54:15.945Z,1.97
2022-09-17T21:56:45.530Z,3.73
2022-09-17T21:59:16.123Z,5.57
2022-09-17T22:01:50.563Z,3.73
2022-09-17T22:04:22.055Z,2.93
2022-09-17T22:06:50.686Z,2.70
2022-09-17T22:09:22.244Z,1.67
2022-09-17T22:11:52.434Z,6.73
2022-09-17T22:14:23.349Z,2.43
2022-09-17T22:16:57.027Z,5.13
2022-09-17T22:19:26.667Z,5.40
2022-09-17T22:21:56.483Z,1.17
2022-09-17T22:24:25.457Z,1.37
2022-09-17T22:26:57.742Z,1.50
2022-09-17T22:29:31.582Z,2.97
2022-09-17T22:31:59.298Z,2.30
2022-09-17T22:34:27.130Z,1.13
2022-09-17T22:36:54.636Z,2.33
2022-09-17T22:39:22.643Z,0.90
2022-09-17T22:41:50.629Z,2.80
2022-09-17T22:44:20.399Z,4.27
2022-09-17T22:46:52.451Z,3.20
2022-09-17T22:49:20.331Z,4.13
2022-09-17T22:51:48.177Z,1.07
2022-09-17T22:54:18.283Z,6.17
2022-09-17T22:56:48.233Z,3.43
2022-09-17T22:59:15.927Z,3.77
2022-09-17T23:01:43.518Z,4.27
2022-09-17T23:04:11.345Z,6.00
2022-09-17T23:06:42.138Z,7.07
2022-09-17T23:09:11.495Z,6.67
2022-09-17T23:11:40.064Z,7.23
2022-09-17T23:14:12.914Z,5.57
2022-09-17T23:16:46.930Z,5.47
2022-09-17T23:19:17.963Z,1.53
2022-09-17T23:21:45.993Z,3.80
2022-09-17T23:24:20.300Z,2.90
2022-09-17T23:26:48.582Z,2.90
2022-09-17T23:29:16.327Z,5.93
2022-09-17T23:31:43.891Z,5.03
2022-09-17T23:34:11.427Z,2.27
2022-09-17T23:36:40.195Z,7.57
2022-09-17T23:39:10.301Z,6.07
2022-09-17T23:41:43.150Z,2.80
2022-09-17T23:44:15.430Z,3.97
2022-09-17T23:46:45.664Z,5.77
2022-09-17T23:49:15.825Z,3.37
2022-09-17T23:51:46.298Z,4.37
2022-09-17T23:54:14.112Z,2.07
2022-09-17T23:56:41.742Z,8.63
2022-09-17T23:59:11.116Z,4.77
